Time;durP1;ratioP1;P1;durP2;ratioP2;P2;SDS_P1;SDS_P2;PMS_P1;PMS_P2;Temp;Humidity;BMP_temperature;BMP_pressure;BME280_temperature;BME280_humidity;BME280_pressure;Samples;Min_cycle;Max_cycle;Signal;HPM_P1;HPM_P2
2022/10/01 00:02:05;;;;;;;11.27;2.20;;;;;;;16.81;nan;101707.38;6188732;23;20426;-87
2022/10/01 00:04:36;;;;;;;13.30;2.03;;;;;;;16.79;nan;101703.97;6164378;23;20573;-88
2022/10/01 00:07:08;;;;;;;17.87;2.40;;;;;;;16.80;nan;101709.28;6164298;23;20562;-88
2022/10/01 00:09:36;;;;;;;12.43;1.90;;;;;;;16.81;nan;101707.38;6099620;23;20442;-87
2022/10/01 00:12:03;;;;;;;8.90;1.53;;;;;;;16.80;nan;101700.16;6051824;23;20399;-87
2022/10/01 00:14:31;;;;;;;8.17;1.47;;;;;;;16.82;nan;101703.56;6052622;23;20489;-88
2022/10/01 00:17:01;;;;;;;10.30;2.17;;;;;;;16.84;nan;101704.19;6101218;23;20407;-88
2022/10/01 00:19:28;;;;;;;5.77;1.23;;;;;;;16.85;nan;101703.13;6125302;23;20953;-87
2022/10/01 00:21:56;;;;;;;9.27;1.53;;;;;;;16.80;nan;101689.09;6053641;23;20937;-85
2022/10/01 00:24:24;;;;;;;9.83;1.90;;;;;;;16.87;nan;101701.00;6100947;23;20932;-85
2022/10/01 00:26:52;;;;;;;4.83;1.23;;;;;;;16.87;nan;101701.88;6053887;23;20407;-85
2022/10/01 00:29:19;;;;;;;8.30;1.83;;;;;;;16.87;nan;101701.88;6053411;23;20485;-85
2022/10/01 00:31:47;;;;;;;4.10;1.23;;;;;;;16.80;nan;101709.28;6076991;23;20801;-85
2022/10/01 00:34:14;;;;;;;5.87;1.90;;;;;;;16.75;nan;101705.44;6122901;23;20407;-85
2022/10/01 00:36:42;;;;;;;17.73;2.07;;;;;;;16.63;nan;101704.34;6190384;23;20404;-84
2022/10/01 00:39:10;;;;;;;14.90;1.80;;;;;;;16.54;nan;101709.22;6190694;23;20538;-84
2022/10/01 00:41:38;;;;;;;11.60;2.37;;;;;;;16.44;nan;101706.88;6166525;23;20400;-84
2022/10/01 00:44:28;;;;;;;11.27;1.90;;;;;;;16.35;nan;101708.13;6190967;23;20569;-85
2022/10/01 00:46:57;;;;;;;13.57;1.67;;;;;;;16.22;nan;101708.06;6215257;23;20479;-85
2022/10/01 00:49:25;;;;;;;13.70;2.10;;;;;;;16.14;nan;101717.41;6166587;23;20408;-84
2022/10/01 00:52:00;;;;;;;15.20;2.10;;;;;;;16.02;nan;101705.25;6166184;23;20969;-84
2022/10/01 00:54:32;;;;;;;8.13;1.43;;;;;;;15.97;nan;101716.03;6190919;23;20407;-84
2022/10/01 00:57:00;;;;;;;4.80;1.63;;;;;;;15.94;nan;101715.63;6214846;23;20474;-85
2022/10/01 00:59:28;;;;;;;4.93;1.17;;;;;;;15.85;nan;101706.66;6215155;23;20486;-85
2022/10/01 01:01:56;;;;;;;8.33;1.83;;;;;;;15.83;nan;101706.84;6215537;23;20478;-85
2022/10/01 01:04:24;;;;;;;9.60;1.80;;;;;;;15.74;nan;101699.84;6190763;23;20574;-85
2022/10/01 01:06:56;;;;;;;7.97;1.70;;;;;;;15.71;nan;101704.91;6191124;23;20408;-84
2022/10/01 01:09:28;;;;;;;10.60;2.03;;;;;;;15.64;nan;101702.09;6190486;23;20411;-84
2022/10/01 01:12:06;;;;;;;11.63;1.63;;;;;;;15.58;nan;101700.19;6190204;23;20422;-84
2022/10/01 01:15:09;;;;;;;6.87;1.60;;;;;;;15.59;nan;101701.84;6192516;23;20411;-85
2022/10/01 01:18:01;;;;;;;8.13;1.60;;;;;;;15.56;nan;101706.94;6180308;23;20411;-84
2022/10/01 01:20:50;;;;;;;7.17;1.30;;;;;;;15.50;nan;101712.16;6216194;23;20515;-85
2022/10/01 01:23:18;;;;;;;5.67;1.60;;;;;;;15.45;nan;101713.81;6216660;23;20404;-85
2022/10/01 01:25:54;;;;;;;5.33;1.40;;;;;;;15.41;nan;101704.25;6214529;23;20583;-85
2022/10/01 01:28:43;;;;;;;9.00;2.03;;;;;;;15.28;nan;101705.03;6214997;23;20486;-85
2022/10/01 01:31:14;;;;;;;4.10;1.60;;;;;;;15.25;nan;101712.84;6215051;23;20408;-84
2022/10/01 01:33:45;;;;;;;3.43;1.40;;;;;;;15.19;nan;101709.84;6190991;23;20482;-84
2022/10/01 01:36:17;;;;;;;9.70;1.60;;;;;;;15.11;nan;101703.63;6214812;23;20546;-85
2022/10/01 01:38:50;;;;;;;6.00;1.57;;;;;;;15.04;nan;101694.44;6190888;23;20427;-85
2022/10/01 01:41:19;;;;;;;8.33;1.67;;;;;;;15.08;nan;101715.88;6215054;23;20849;-84
2022/10/01 01:43:50;;;;;;;3.23;1.33;;;;;;;15.03;nan;101707.38;6190398;23;20547;-84
2022/10/01 01:46:18;;;;;;;2.50;0.90;;;;;;;15.01;nan;101703.97;6215563;23;20964;-84
2022/10/01 01:48:47;;;;;;;3.23;1.40;;;;;;;14.99;nan;101710.75;6189869;23;20407;-84
2022/10/01 01:51:52;;;;;;;6.77;1.40;;;;;;;14.97;nan;101713.69;6165847;23;20523;-86
2022/10/01 01:54:20;;;;;;;6.97;1.17;;;;;;;14.91;nan;101719.97;6214657;23;20928;-84
2022/10/01 01:56:49;;;;;;;7.73;1.67;;;;;;;14.83;nan;101709.09;6164829;23;20408;-85
2022/10/01 01:59:19;;;;;;;11.70;1.50;;;;;;;14.81;nan;101709.34;6214758;23;20403;-85
2022/10/01 02:01:48;;;;;;;4.43;0.90;;;;;;;14.78;nan;101703.38;6214877;23;20482;-85
2022/10/01 02:04:39;;;;;;;7.43;1.20;;;;;;;14.77;nan;101707.16;6239701;23;20458;-85
2022/10/01 02:07:15;;;;;;;4.47;1.50;;;;;;;14.75;nan;101709.25;6214543;23;20491;-84
2022/10/01 02:10:06;;;;;;;7.13;1.13;;;;;;;14.74;nan;101707.56;6189626;23;20408;-85
2022/10/01 02:12:42;;;;;;;6.33;1.40;;;;;;;14.69;nan;101710.03;6205935;23;20492;-85
2022/10/01 02:15:42;;;;;;;9.03;2.20;;;;;;;14.62;nan;101711.91;6214700;23;20470;-85
2022/10/01 02:18:26;;;;;;;13.10;1.73;;;;;;;14.54;nan;101706.50;6190146;23;20734;-85
2022/10/01 02:21:13;;;;;;;6.77;1.37;;;;;;;14.53;nan;101705.66;6190549;23;20518;-85
2022/10/01 02:23:56;;;;;;;5.53;1.53;;;;;;;14.55;nan;101724.72;6213652;23;20415;-85
2022/10/01 02:26:25;;;;;;;7.83;1.20;;;;;;;14.50;nan;101712.41;6168026;23;20419;-86
2022/10/01 02:28:57;;;;;;;5.70;1.47;;;;;;;14.52;nan;101718.56;6189701;23;20412;-85
2022/10/01 02:31:25;;;;;;;8.17;1.50;;;;;;;14.51;nan;101719.59;6189830;23;20526;-83
2022/10/01 02:33:53;;;;;;;3.80;1.10;;;;;;;14.46;nan;101711.06;6214072;23;20486;-84
2022/10/01 02:36:20;;;;;;;8.20;1.23;;;;;;;14.48;nan;101719.13;6165113;23;20483;-84
2022/10/01 02:38:49;;;;;;;5.73;1.40;;;;;;;14.45;nan;101714.88;6214091;23;20408;-87
2022/10/01 02:41:25;;;;;;;2.47;1.20;;;;;;;14.43;nan;101711.47;6189684;23;20801;-84
2022/10/01 02:44:00;;;;;;;5.00;1.30;;;;;;;14.47;nan;101710.03;6214219;23;20407;-84
2022/10/01 02:46:39;;;;;;;7.20;1.47;;;;;;;14.51;nan;101722.34;6190010;23;20494;-85
2022/10/01 02:49:07;;;;;;;7.97;1.50;;;;;;;14.44;nan;101698.56;6165728;23;20498;-85
2022/10/01 02:51:55;;;;;;;11.40;1.93;;;;;;;14.54;nan;101717.50;6214238;23;20729;-85
2022/10/01 02:54:25;;;;;;;4.97;1.30;;;;;;;14.54;nan;101718.38;6165415;23;20411;-85
2022/10/01 02:59:51;;;;;;;3.17;1.50;;;;;;;14.45;nan;101714.03;6201899;23;20482;-85
2022/10/01 03:02:18;;;;;;;5.00;1.17;;;;;;;14.43;nan;101716.97;6164839;23;20411;-84
2022/10/01 03:04:47;;;;;;;7.60;1.27;;;;;;;14.42;nan;101723.53;6214032;23;20592;-85
2022/10/01 03:07:15;;;;;;;10.50;1.40;;;;;;;14.38;nan;101713.94;6165299;23;20407;-87
2022/10/01 03:09:43;;;;;;;4.33;1.37;;;;;;;14.34;nan;101723.63;6189242;23;20533;-85
2022/10/01 03:12:10;;;;;;;4.60;1.13;;;;;;;14.27;nan;101714.44;6189074;23;20419;-86
2022/10/01 03:14:38;;;;;;;6.83;1.50;;;;;;;14.25;nan;101708.28;6213881;23;20742;-85
2022/10/01 03:17:10;;;;;;;4.77;1.50;;;;;;;14.25;nan;101713.78;6190108;23;20415;-85
2022/10/01 03:19:38;;;;;;;6.60;1.33;;;;;;;14.21;nan;101712.47;6213559;23;20490;-85
2022/10/01 03:22:07;;;;;;;7.23;1.20;;;;;;;14.20;nan;101719.03;6189377;23;20408;-85
2022/10/01 03:24:35;;;;;;;2.53;1.00;;;;;;;14.15;nan;101716.84;6164943;23;20431;-85
2022/10/01 03:27:03;;;;;;;5.10;1.00;;;;;;;14.15;nan;101716.00;6165387;23;20475;-85
2022/10/01 03:29:31;;;;;;;1.83;1.03;;;;;;;14.13;nan;101721.69;6214201;23;20410;-85
2022/10/01 03:31:58;;;;;;;4.13;1.40;;;;;;;14.02;nan;101707.59;6189418;23;20487;-85
2022/10/01 03:34:26;;;;;;;4.60;1.20;;;;;;;14.06;nan;101731.75;6213730;23;20482;-85
2022/10/01 03:36:54;;;;;;;2.90;1.07;;;;;;;14.05;nan;101737.44;6213532;23;20465;-85
2022/10/01 03:39:21;;;;;;;2.93;1.10;;;;;;;13.99;nan;101732.72;6213760;23;20411;-85
2022/10/01 03:41:49;;;;;;;5.93;1.20;;;;;;;13.97;nan;101726.56;6189271;23;20412;-85
2022/10/01 03:44:36;;;;;;;5.70;1.43;;;;;;;13.93;nan;101719.72;6172075;23;20403;-85
2022/10/01 03:47:12;;;;;;;7.67;1.37;;;;;;;13.81;nan;101712.00;6168871;23;20408;-85
2022/10/01 03:49:54;;;;;;;2.90;0.90;;;;;;;13.88;nan;101720.31;6193410;23;20411;-85
2022/10/01 03:52:45;;;;;;;2.20;1.10;;;;;;;13.94;nan;101718.69;6188502;23;20435;-86
2022/10/01 03:55:30;;;;;;;3.40;1.20;;;;;;;14.01;nan;101733.38;6174008;23;20485;-85
2022/10/01 03:57:57;;;;;;;6.70;1.57;;;;;;;13.97;nan;101737.56;6191780;23;20542;-85
2022/10/01 04:00:25;;;;;;;3.23;1.13;;;;;;;13.92;nan;101729.88;6191120;23;20408;-85
2022/10/01 04:02:53;;;;;;;8.57;1.30;;;;;;;13.87;nan;101724.09;6166139;23;20419;-85
2022/10/01 04:05:21;;;;;;;2.80;1.20;;;;;;;13.89;nan;101732.16;6191525;23;20562;-85
2022/10/01 04:07:50;;;;;;;4.03;1.60;;;;;;;13.80;nan;101715.78;6215944;23;20411;-85
2022/10/01 04:10:18;;;;;;;4.13;1.00;;;;;;;13.86;nan;101735.28;6191886;23;20521;-85
2022/10/01 04:12:45;;;;;;;7.83;1.00;;;;;;;13.85;nan;101739.09;6191363;23;20415;-85
2022/10/01 04:15:13;;;;;;;5.23;1.00;;;;;;;13.82;nan;101740.31;6190845;23;20969;-85
2022/10/01 04:17:40;;;;;;;3.53;1.33;;;;;;;13.76;nan;101730.94;6216042;23;20949;-85
2022/10/01 04:20:11;;;;;;;6.33;1.40;;;;;;;13.76;nan;101739.19;6191574;23;20435;-86
2022/10/01 04:22:40;;;;;;;6.63;1.17;;;;;;;13.70;nan;101737.19;6190991;23;20851;-86
2022/10/01 04:25:11;;;;;;;3.07;1.30;;;;;;;13.70;nan;101737.19;6215942;23;20526;-85
2022/10/01 04:27:40;;;;;;;6.73;1.00;;;;;;;13.69;nan;101738.22;6191821;23;20408;-85
2022/10/01 04:30:08;;;;;;;3.83;1.40;;;;;;;13.65;nan;101725.94;6215857;23;20856;-85
2022/10/01 04:32:37;;;;;;;3.27;1.30;;;;;;;13.68;nan;101738.41;6215609;23;20491;-85
2022/10/01 04:35:10;;;;;;;3.30;1.17;;;;;;;13.68;nan;101733.78;6072271;23;20422;-85
2022/10/01 04:37:38;;;;;;;4.40;1.27;;;;;;;13.67;nan;101734.81;6072318;23;20542;-86
2022/10/01 04:40:06;;;;;;;3.80;1.20;;;;;;;13.64;nan;101739.84;6048289;23;20482;-85
2022/10/01 04:42:34;;;;;;;6.30;1.37;;;;;;;13.65;nan;101738.81;6048030;23;20549;-85
2022/10/01 04:45:01;;;;;;;2.40;1.20;;;;;;;13.61;nan;101749.31;6071407;23;20443;-84
2022/10/01 04:47:29;;;;;;;1.83;1.10;;;;;;;13.59;nan;101748.66;6095617;23;20550;-85
2022/10/01 04:50:01;;;;;;;3.57;1.20;;;;;;;13.59;nan;101754.16;6072790;23;20558;-85
2022/10/01 04:52:29;;;;;;;8.20;1.50;;;;;;;13.58;nan;101757.09;6095652;23;20486;-85
2022/10/01 04:54:56;;;;;;;7.40;1.30;;;;;;;13.57;nan;101756.22;6095765;23;20494;-85
2022/10/01 04:57:24;;;;;;;3.63;0.90;;;;;;;13.54;nan;101742.03;6048162;23;20498;-85
2022/10/01 04:59:54;;;;;;;3.60;1.00;;;;;;;13.61;nan;101757.56;6115631;23;20981;-85
2022/10/01 05:02:22;;;;;;;3.67;1.20;;;;;;;13.57;nan;101750.75;6217013;23;20890;-85
2022/10/01 05:04:50;;;;;;;8.03;1.20;;;;;;;13.48;nan;101730.75;6105808;23;20484;-85
2022/10/01 05:07:18;;;;;;;5.30;1.40;;;;;;;13.60;nan;101758.59;6106153;23;20557;-85
2022/10/01 05:09:46;;;;;;;4.83;1.00;;;;;;;13.59;nan;101762.41;6105619;23;20480;-85
2022/10/01 05:12:13;;;;;;;6.90;1.70;;;;;;;13.57;nan;101767.22;6130163;23;20409;-85
2022/10/01 05:14:41;;;;;;;4.87;1.40;;;;;;;13.61;nan;101782.28;6105440;23;20401;-85
2022/10/01 05:17:09;;;;;;;4.40;1.00;;;;;;;13.55;nan;101772.03;6130011;23;20991;-85
2022/10/01 05:19:36;;;;;;;4.30;0.93;;;;;;;13.57;nan;101780.97;6105429;23;20879;-85
2022/10/01 05:22:06;;;;;;;6.77;1.60;;;;;;;13.53;nan;101774.13;6129802;23;20476;-84
2022/10/01 05:24:33;;;;;;;4.50;0.90;;;;;;;13.47;nan;101774.88;6129118;23;20521;-85
2022/10/01 05:27:01;;;;;;;4.27;1.17;;;;;;;13.42;nan;101777.34;6105481;23;20496;-85
2022/10/01 05:29:29;;;;;;;8.47;1.00;;;;;;;13.47;nan;101774.88;6184819;23;20438;-84
2022/10/01 05:31:59;;;;;;;3.43;1.37;;;;;;;13.47;nan;101774.88;6166061;23;20396;-85
2022/10/01 05:34:30;;;;;;;6.67;1.13;;;;;;;13.44;nan;101765.13;6216433;23;20400;-85
2022/10/01 05:36:58;;;;;;;6.43;1.70;;;;;;;13.44;nan;101776.13;6216734;23;20961;-85
2022/10/01 05:39:25;;;;;;;2.67;1.20;;;;;;;13.41;nan;101781.13;6214614;23;20404;-85
2022/10/01 05:41:54;;;;;;;2.73;1.07;;;;;;;13.42;nan;101793.81;6214497;23;20487;-85
2022/10/01 05:44:23;;;;;;;2.10;0.97;;;;;;;13.42;nan;101789.19;6190115;23;20962;-85
2022/10/01 05:46:54;;;;;;;5.37;1.10;;;;;;;13.41;nan;101790.22;6189952;23;20522;-85
2022/10/01 05:49:24;;;;;;;5.83;0.90;;;;;;;13.39;nan;101794.19;6214661;23;21013;-85
2022/10/01 05:51:52;;;;;;;2.90;1.10;;;;;;;13.36;nan;101791.81;6165146;23;20481;-85
2022/10/01 05:54:22;;;;;;;6.50;1.00;;;;;;;13.70;nan;101851.72;6214285;23;20498;-85
2022/10/01 05:56:52;;;;;;;3.30;1.40;;;;;;;13.27;nan;101802.03;6190250;23;20981;-85
2022/10/01 05:59:20;;;;;;;5.27;1.30;;;;;;;13.28;nan;101808.34;6216017;23;20482;-85
2022/10/01 06:01:47;;;;;;;2.50;1.10;;;;;;;13.25;nan;101809.59;6189805;23;20407;-85
2022/10/01 06:04:15;;;;;;;3.10;1.20;;;;;;;13.22;nan;101809.13;6190092;23;20834;-86
2022/10/01 06:06:42;;;;;;;3.53;1.07;;;;;;;13.21;nan;101818.38;6165252;23;20582;-85
2022/10/01 06:09:12;;;;;;;3.10;0.90;;;;;;;13.19;nan;101814.97;6215780;23;20478;-85
2022/10/01 06:11:42;;;;;;;3.87;1.27;;;;;;;13.19;nan;101825.94;6214617;23;20486;-85
2022/10/01 06:14:10;;;;;;;4.93;0.80;;;;;;;13.18;nan;101824.25;6214806;23;20977;-84
2022/10/01 06:16:39;;;;;;;8.47;1.30;;;;;;;13.16;nan;101826.31;6189891;23;20495;-85
2022/10/01 06:19:07;;;;;;;4.20;1.20;;;;;;;13.14;nan;101831.94;6190927;23;20407;-85
2022/10/01 06:21:34;;;;;;;3.90;1.57;;;;;;;13.13;nan;101835.72;6214510;23;20427;-86
2022/10/01 06:24:03;;;;;;;4.47;1.20;;;;;;;13.11;nan;101844.16;6099673;23;20410;-86
2022/10/01 06:26:30;;;;;;;5.00;1.10;;;;;;;13.08;nan;101841.75;6052396;23;20454;-86
2022/10/01 06:28:58;;;;;;;1.77;0.77;;;;;;;13.08;nan;101844.50;6052903;23;20496;-86
2022/10/01 06:31:26;;;;;;;2.03;0.87;;;;;;;12.96;nan;101826.78;6052681;23;20542;-86
2022/10/01 06:33:54;;;;;;;2.77;1.00;;;;;;;13.04;nan;101839.59;6099952;23;20410;-86
2022/10/01 06:36:23;;;;;;;8.57;0.87;;;;;;;13.02;nan;101848.00;6075949;23;20492;-86
2022/10/01 06:38:51;;;;;;;8.63;1.53;;;;;;;13.04;nan;101859.66;6075770;23;20401;-86
2022/10/01 06:41:21;;;;;;;9.43;1.47;;;;;;;13.03;nan;101860.69;6099892;23;20924;-86
2022/10/01 06:43:48;;;;;;;4.00;1.20;;;;;;;13.04;nan;101861.56;6052610;23;20851;-85
2022/10/01 06:46:17;;;;;;;9.00;1.30;;;;;;;13.01;nan;101854.53;6099786;23;20513;-85
2022/10/01 06:48:48;;;;;;;7.53;1.50;;;;;;;13.01;nan;101857.28;6159324;23;20965;-88
2022/10/01 06:52:47;;;;;;;4.30;1.10;;;;;;;13.05;nan;101866.84;6216114;23;20788;-88
2022/10/01 06:54:05;;;;;;;13.57;3.50;;;;;;;13.06;nan;101875.94;6193996;23;20408;-88
2022/10/01 06:56:35;;;;;;;14.33;3.80;;;;;;;13.00;nan;101854.72;6189791;23;20529;-89
2022/10/01 06:59:03;;;;;;;15.23;2.00;;;;;;;13.03;nan;101866.19;6215709;23;20408;-88
2022/10/01 07:01:31;;;;;;;4.17;2.53;;;;;;;13.05;nan;101877.84;6189406;23;20431;-88
2022/10/01 07:03:59;;;;;;;4.37;1.30;;;;;;;13.05;nan;101886.06;6165402;23;20953;-87
2022/10/01 07:06:27;;;;;;;5.97;1.90;;;;;;;13.10;nan;101893.72;6164938;23;20781;-89
2022/10/01 07:08:55;;;;;;;3.97;1.23;;;;;;;13.13;nan;101899.72;6189528;23;20407;-88
2022/10/01 07:11:25;;;;;;;5.50;1.20;;;;;;;13.12;nan;101887.03;6165547;23;20407;-90
2022/10/01 07:13:53;;;;;;;5.53;1.03;;;;;;;13.15;nan;101894.09;6166468;23;20745;-89
2022/10/01 07:16:21;;;;;;;5.03;1.13;;;;;;;13.21;nan;101901.59;6189069;23;20420;-90
2022/10/01 07:19:11;;;;;;;7.60;1.13;;;;;;;13.21;nan;101885.13;6189855;23;20957;-89
2022/10/01 07:25:02;;;;;;;4.47;1.50;;;;;;;13.38;nan;101886.69;6215727;23;20408;-89
2022/10/01 07:32:30;;;;;;;4.30;1.20;;;;;;;13.73;nan;101895.31;6229105;23;20421;-95
2022/10/01 07:35:56;;;;;;;12.40;2.43;;;;;;;13.85;nan;101920.47;6218633;23;20385;-96
2022/10/01 07:42:36;;;;;;;82.13;4.47;;;;;;;13.97;nan;101919.81;6220335;23;20374;-95
2022/10/01 07:45:41;;;;;;;45.97;2.90;;;;;;;14.16;nan;101929.41;6193664;23;20422;-95
2022/10/01 07:48:21;;;;;;;49.27;4.50;;;;;;;14.17;nan;101911.88;6194424;23;20874;-95
2022/10/01 07:50:56;;;;;;;20.93;2.57;;;;;;;14.38;nan;101933.13;6168908;23;20421;-94
2022/10/01 07:53:36;;;;;;;36.70;2.60;;;;;;;14.40;nan;101918.16;6170408;23;20741;-95
2022/10/01 07:56:09;;;;;;;11.53;2.50;;;;;;;14.59;nan;101932.38;6168928;23;20421;-96
2022/10/01 07:58:42;;;;;;;4.30;1.60;;;;;;;14.58;nan;101920.53;6193442;23;20729;-95
2022/10/01 08:05:27;;;;;;;12.40;1.70;;;;;;;15.09;nan;101948.03;6218409;23;20372;-95
2022/10/01 08:11:54;;;;;;;9.90;2.00;;;;;;;15.42;nan;101956.66;6218817;23;20396;-95
2022/10/01 08:14:32;;;;;;;4.30;1.27;;;;;;;15.57;nan;101963.03;6217489;23;20485;-96
2022/10/01 08:17:01;;;;;;;3.83;2.00;;;;;;;15.57;nan;101938.22;6192346;23;20467;-95
2022/10/01 08:20:13;;;;;;;5.70;1.47;;;;;;;15.89;nan;101962.47;6168695;23;20415;-95
2022/10/01 08:23:09;;;;;;;5.13;1.70;;;;;;;16.25;nan;101966.97;6185055;23;20424;-95
2022/10/01 08:26:24;;;;;;;3.00;0.80;;;;;;;16.63;nan;101977.63;6162986;23;20408;-95
2022/10/01 08:29:33;;;;;;;3.10;0.73;;;;;;;17.07;nan;101974.47;6186781;23;20417;-96
2022/10/01 08:32:13;;;;;;;6.43;0.80;;;;;;;17.44;nan;101967.56;6185825;23;20412;-95
2022/10/01 08:34:51;;;;;;;2.37;0.83;;;;;;;17.73;nan;101956.16;6161906;23;20416;-92
2022/10/01 08:37:31;;;;;;;15.60;2.30;;;;;;;18.01;nan;101966.19;6140366;23;20875;-93
2022/10/01 08:40:42;;;;;;;8.00;1.00;;;;;;;18.31;nan;101975.72;6164599;23;20426;-92
2022/10/01 08:43:31;;;;;;;3.60;0.80;;;;;;;18.46;nan;101957.00;6188028;23;20423;-92
2022/10/01 08:46:18;;;;;;;2.07;0.73;;;;;;;18.79;nan;101978.22;6138855;23;20447;-94
2022/10/01 08:49:23;;;;;;;2.83;1.40;;;;;;;19.02;nan;101984.13;6162868;23;20392;-94
2022/10/01 08:55:17;;;;;;;2.10;0.83;;;;;;;19.38;nan;101963.25;6186890;23;20482;-95
2022/10/01 10:29:44;;;;;;;5.73;2.73;;;;;;;23.22;nan;102056.31;6242676;23;20409;-92
2022/10/01 10:52:37;;;;;;;10.43;0.90;;;;;;;23.85;nan;102080.53;6216630;23;20917;-86
2022/10/01 11:06:35;;;;;;;4.13;1.50;;;;;;;24.25;nan;102080.44;6215955;23;20935;-87
2022/10/01 11:16:48;;;;;;;3.43;1.10;;;;;;;24.73;nan;102093.00;6034196;23;20484;-88
2022/10/01 11:19:21;;;;;;;2.00;0.87;;;;;;;24.85;nan;102092.88;6041789;23;20539;-87
2022/10/01 11:21:52;;;;;;;2.20;0.87;;;;;;;24.91;nan;102087.13;6065263;23;20544;-87
2022/10/01 11:24:36;;;;;;;9.20;1.20;;;;;;;24.91;nan;102072.28;6041742;23;20404;-85
2022/10/01 11:27:23;;;;;;;2.67;0.97;;;;;;;24.99;nan;102083.94;6041679;23;20944;-86
2022/10/01 11:29:51;;;;;;;2.17;1.17;;;;;;;25.03;nan;102087.03;6065457;23;20415;-88
2022/10/01 11:32:38;;;;;;;4.27;1.30;;;;;;;25.09;nan;102080.41;6064625;23;20411;-89
2022/10/01 11:39:02;;;;;;;3.27;0.93;;;;;;;25.12;nan;102060.31;6065533;23;20917;-88
2022/10/01 11:42:34;;;;;;;;;;;;;;;;;;;;;
2022/10/01 12:11:46;;;;;;;4.77;1.60;;;;;;;26.58;nan;102051.84;6183154;23;20478;-88
2022/10/01 12:14:41;;;;;;;7.43;1.60;;;;;;;26.62;nan;102040.94;6191129;23;20487;-88
2022/10/01 12:21:20;;;;;;;6.37;1.90;;;;;;;26.95;nan;102048.19;6184790;23;20727;-87
2022/10/01 12:32:08;;;;;;;5.70;1.60;;;;;;;27.28;nan;102041.38;6063536;23;20400;-86
2022/10/01 12:35:42;;;;;;;3.00;1.37;;;;;;;27.29;nan;102032.66;5981645;24;20410;-87
2022/10/01 12:46:06;;;;;;;2.23;1.43;;;;;;;27.53;nan;102014.19;5981405;24;20411;-87
2022/10/01 12:53:23;;;;;;;3.17;1.10;;;;;;;27.64;nan;102017.94;5926533;24;20380;-87
2022/10/01 12:56:31;;;;;;;3.70;1.20;;;;;;;27.58;nan;101990.09;5926193;24;21028;-87
2022/10/01 14:02:10;;;;;;;2.60;0.70;;;;;;;28.74;nan;101902.00;6239094;22;21317;-88
2022/10/01 14:04:57;;;;;;;1.80;0.50;;;;;;;28.66;nan;101883.78;6221551;23;20482;-87
2022/10/01 14:07:27;;;;;;;3.10;0.87;;;;;;;28.77;nan;101893.00;6219514;23;20517;-88
2022/10/01 14:16:57;;;;;;;3.07;0.80;;;;;;;28.80;nan;101898.94;6130196;23;20446;-87
2022/10/01 14:41:00;;;;;;;4.07;1.10;;;;;;;28.70;nan;101869.94;5941359;24;20406;-88
2022/10/01 14:43:53;;;;;;;3.57;0.83;;;;;;;28.79;nan;101882.28;5971572;23;20798;-88
2022/10/01 14:50:23;;;;;;;4.40;0.67;;;;;;;28.92;nan;101892.97;6049126;23;20718;-86
2022/10/01 14:56:44;;;;;;;2.27;1.13;;;;;;;28.88;nan;101875.78;6066150;23;20379;-91
2022/10/01 14:59:26;;;;;;;21.13;1.23;;;;;;;28.90;nan;101877.47;6042428;23;20752;-88
2022/10/01 15:09:32;;;;;;;1.50;0.60;;;;;;;28.82;nan;101873.31;5980878;24;20469;-88
2022/10/01 15:24:23;;;;;;;;;;;;;;;;;;;;;
2022/10/01 15:46:37;;;;;;;3.63;0.73;;;;;;;28.60;nan;101856.78;5762488;24;20451;-89
2022/10/01 15:49:23;;;;;;;2.17;0.70;;;;;;;28.51;nan;101859.31;5818437;24;20768;-87
2022/10/01 16:06:43;;;;;;;1.33;0.40;;;;;;;28.26;nan;101841.72;5784589;24;20426;-88
2022/10/01 16:09:29;;;;;;;2.73;0.63;;;;;;;28.21;nan;101847.34;5958228;24;20418;-88
2022/10/01 16:12:08;;;;;;;1.53;0.60;;;;;;;28.19;nan;101854.09;5917789;24;20410;-88
2022/10/01 16:14:46;;;;;;;2.40;0.60;;;;;;;28.11;nan;101849.00;5992785;23;20413;-90
2022/10/01 16:17:16;;;;;;;4.30;0.60;;;;;;;28.07;nan;101853.53;6038718;23;20747;-91
2022/10/01 16:19:48;;;;;;;2.50;0.60;;;;;;;28.07;nan;101850.72;6038487;23;20420;-90
2022/10/01 16:22:18;;;;;;;1.10;0.40;;;;;;;28.06;nan;101868.72;6015114;23;20412;-91
2022/10/01 16:24:51;;;;;;;1.00;0.40;;;;;;;27.99;nan;101856.06;6015387;23;20420;-90
2022/10/01 16:38:44;;;;;;;5.13;0.77;;;;;;;27.63;nan;101838.41;6038782;23;20437;-89
2022/10/01 16:41:26;;;;;;;3.10;0.60;;;;;;;27.55;nan;101838.91;6014795;23;20409;-90
2022/10/01 16:43:56;;;;;;;1.30;0.57;;;;;;;27.57;nan;101847.91;6240143;23;20470;-89
2022/10/01 16:46:25;;;;;;;2.40;0.70;;;;;;;27.51;nan;101845.13;6142831;23;20490;-89
2022/10/01 16:56:51;;;;;;;1.70;0.90;;;;;;;27.32;nan;101841.19;6216431;23;20395;-90
2022/10/01 17:27:25;;;;;;;6.70;0.70;;;;;;;26.07;nan;101824.38;6234185;23;20441;-90
2022/10/01 17:29:56;;;;;;;1.77;0.40;;;;;;;26.00;nan;101837.78;6220718;23;20406;-88
2022/10/01 17:32:30;;;;;;;4.20;0.60;;;;;;;25.84;nan;101837.94;6173432;23;20410;-88
2022/10/01 17:34:58;;;;;;;1.30;0.50;;;;;;;25.69;nan;101833.09;6171934;23;20477;-88
2022/10/01 17:37:26;;;;;;;3.27;0.60;;;;;;;25.45;nan;101835.38;6220413;23;20485;-88
2022/10/01 17:59:02;;;;;;;2.80;0.70;;;;;;;23.69;nan;101830.03;6246807;23;20406;-88
2022/10/01 18:05:17;;;;;;;2.30;0.93;;;;;;;23.43;nan;101820.38;6246689;23;20413;-87
2022/10/01 19:05:58;;;;;;;7.30;1.37;;;;;;;21.27;nan;101846.81;6215780;23;20376;-87
2022/10/01 20:16:49;;;;;;;2.87;1.60;;;;;;;19.53;nan;101925.00;6092033;23;20404;-87
2022/10/01 20:19:42;;;;;;;6.50;2.43;;;;;;;19.39;nan;101910.34;6014085;23;20488;-87
2022/10/01 20:26:15;;;;;;;7.43;1.13;;;;;;;19.18;nan;101900.47;6195723;23;20917;-88
2022/10/01 20:29:09;;;;;;;7.30;1.27;;;;;;;19.22;nan;101928.59;6189923;23;20439;-88
2022/10/01 21:17:35;;;;;;;17.43;1.13;;;;;;;18.33;nan;101957.00;6221450;23;20559;-89
2022/10/01 21:23:56;;;;;;;10.93;1.63;;;;;;;18.11;nan;101947.22;6246865;23;20482;-90
2022/10/01 21:27:10;;;;;;;8.10;1.00;;;;;;;18.12;nan;101951.69;6105181;23;20759;-89
2022/10/01 21:45:16;;;;;;;6.60;1.30;;;;;;;17.76;nan;101952.13;6038165;23;20379;-89
2022/10/01 21:48:47;;;;;;;10.23;1.90;;;;;;;17.65;nan;101958.28;6009090;23;20452;-90
2022/10/01 21:51:58;;;;;;;9.37;1.60;;;;;;;17.57;nan;101957.38;6010238;23;20409;-92
2022/10/01 21:55:08;;;;;;;7.40;1.73;;;;;;;17.51;nan;101971.22;5986400;23;20422;-92
2022/10/01 21:57:47;;;;;;;12.30;1.80;;;;;;;17.43;nan;101966.72;5978713;23;20422;-93
2022/10/01 22:00:23;;;;;;;8.20;1.90;;;;;;;17.36;nan;101970.53;6010293;23;20425;-91
2022/10/01 22:03:38;;;;;;;10.53;1.63;;;;;;;17.32;nan;101967.31;5988884;23;20428;-93
2022/10/01 22:06:30;;;;;;;8.00;1.77;;;;;;;17.25;nan;101966.47;6066045;23;20746;-91
2022/10/01 22:12:13;;;;;;;3.00;1.00;;;;;;;17.06;nan;101953.44;6152703;23;20943;-91
2022/10/01 22:14:51;;;;;;;4.37;1.27;;;;;;;17.00;nan;101960.63;6082485;23;20408;-92
2022/10/01 22:17:38;;;;;;;3.80;1.00;;;;;;;16.91;nan;101956.38;6138377;23;20473;-92
2022/10/01 22:23:59;;;;;;;6.00;1.63;;;;;;;16.90;nan;101954.66;6217086;23;21009;-90
2022/10/01 22:26:30;;;;;;;1.90;0.90;;;;;;;16.90;nan;101949.13;6166128;23;20402;-91
2022/10/01 22:28:59;;;;;;;1.67;1.03;;;;;;;16.75;nan;101934.59;6165750;23;20450;-88
2022/10/01 22:31:32;;;;;;;3.20;0.60;;;;;;;16.81;nan;101940.16;6166026;23;20776;-89
2022/10/01 22:34:38;;;;;;;1.57;0.70;;;;;;;16.74;nan;101955.84;6165987;23;20482;-88
2022/10/01 22:37:17;;;;;;;4.60;1.13;;;;;;;16.69;nan;101952.00;6215696;23;20412;-90
2022/10/01 22:39:50;;;;;;;8.17;1.63;;;;;;;16.58;nan;101934.91;6166163;23;20461;-90
2022/10/01 22:42:51;;;;;;;3.73;0.83;;;;;;;16.65;nan;101948.78;6141661;23;20432;-89
2022/10/01 22:45:19;;;;;;;3.10;1.20;;;;;;;16.55;nan;101938.06;6139234;23;20898;-89
2022/10/01 22:47:58;;;;;;;2.70;1.23;;;;;;;16.53;nan;101936.59;6190482;23;20428;-90
2022/10/01 22:50:46;;;;;;;11.33;1.30;;;;;;;16.51;nan;101961.66;6165194;23;20710;-89
2022/10/01 22:53:39;;;;;;;2.03;0.80;;;;;;;16.43;nan;101959.03;6189063;23;20418;-90
2022/10/01 22:56:08;;;;;;;3.20;1.00;;;;;;;16.34;nan;101937.34;6166598;23;20388;-90
2022/10/01 22:59:09;;;;;;;2.43;1.20;;;;;;;16.33;nan;101936.50;6165604;23;20403;-89
2022/10/01 23:01:40;;;;;;;3.90;1.07;;;;;;;16.33;nan;101955.81;6169079;23;20400;-90
2022/10/01 23:05:02;;;;;;;22.27;1.93;;;;;;;16.19;nan;101934.66;6165191;23;20497;-89